Terminal Aerodrome Forecast
Issued by NWS

Home | Current Version | Previous Version | Text Only | Print | Product List | Glossary On
Versions: 1 2 3 4 5 6 7 8 9 10 11 12 13 14 15
027
FTUS41 KPBZ 260520
TAFZZV
TAF
KZZV 260520Z 2606/2706 12003KT P6SM BKN150
     FM261400 16010KT P6SM -SHRA OVC040
     FM262000 18010KT 3SM -SHRA BR OVC025
     FM270100 17006KT 6SM -SHRA OVC015=

USA.gov is the U.S. government's official web portal to all federal, state and local government web resources and services.